Time;durP1;ratioP1;P1;durP2;ratioP2;P2;SDS_P1;SDS_P2;PMS_P1;PMS_P2;Temp;Humidity;BMP_temperature;BMP_pressure;BME280_temperature;BME280_humidity;BME280_pressure;Samples;Min_cycle;Max_cycle;Signal;HPM_P1;HPM_P2
2024/01/20 00:01:44;;;;;;;6.85;3.25;;;1.90;99.90;;;;;;5015791;28;20517;-84
2024/01/20 00:04:10;;;;;;;6.00;2.88;;;1.80;99.90;;;;;;5014648;28;20037;-85
2024/01/20 00:06:36;;;;;;;4.78;2.40;;;1.90;99.90;;;;;;5005799;28;20521;-84
2024/01/20 00:09:02;;;;;;;8.20;3.30;;;1.90;99.90;;;;;;5030420;28;20498;-83
2024/01/20 00:11:28;;;;;;;6.60;3.30;;;1.90;99.90;;;;;;5015509;28;20049;-84
2024/01/20 00:13:53;;;;;;;5.55;2.75;;;1.90;99.90;;;;;;5013904;28;20490;-84
2024/01/20 00:16:19;;;;;;;11.02;4.05;;;1.80;99.90;;;;;;5014553;28;20049;-84
2024/01/20 00:18:44;;;;;;;7.30;3.15;;;1.80;99.90;;;;;;5015327;28;20048;-84
2024/01/20 00:21:10;;;;;;;7.13;3.20;;;1.80;99.90;;;;;;5031347;28;20064;-84
2024/01/20 00:23:37;;;;;;;7.35;4.38;;;1.80;99.90;;;;;;5014333;28;20119;-84
2024/01/20 00:26:03;;;;;;;6.53;3.78;;;1.80;99.90;;;;;;5010674;28;20037;-84
2024/01/20 00:28:29;;;;;;;12.38;6.32;;;1.70;99.90;;;;;;5014282;28;20613;-84
2024/01/20 00:30:55;;;;;;;9.70;5.07;;;1.70;99.90;;;;;;5031422;28;20117;-85
2024/01/20 00:33:20;;;;;;;7.35;3.88;;;1.70;99.90;;;;;;5013724;28;20042;-84
2024/01/20 00:35:47;;;;;;;6.80;3.45;;;1.70;99.90;;;;;;5000096;28;20045;-84
2024/01/20 00:38:13;;;;;;;10.48;5.32;;;1.70;99.90;;;;;;5014745;28;20041;-84
2024/01/20 00:40:39;;;;;;;9.93;4.90;;;1.70;99.90;;;;;;5031874;28;20068;-85
2024/01/20 00:43:05;;;;;;;10.82;5.90;;;1.60;99.90;;;;;;5030828;28;20042;-84
2024/01/20 00:45:30;;;;;;;12.70;5.45;;;1.60;99.90;;;;;;5014293;28;20092;-85
2024/01/20 00:47:56;;;;;;;12.30;6.80;;;1.60;99.90;;;;;;5014176;28;20117;-84
2024/01/20 00:50:22;;;;;;;10.80;5.82;;;1.70;99.90;;;;;;5031608;28;20112;-85
2024/01/20 00:52:48;;;;;;;8.43;4.20;;;1.60;99.90;;;;;;5014389;28;20041;-85
2024/01/20 00:55:13;;;;;;;10.45;5.50;;;1.70;99.90;;;;;;5013504;28;20087;-84
2024/01/20 00:57:39;;;;;;;9.30;4.88;;;1.60;99.90;;;;;;5014178;28;20041;-85
2024/01/20 01:00:09;;;;;;;12.00;6.18;;;1.60;99.90;;;;;;5015714;28;20429;-84
2024/01/20 01:02:35;;;;;;;11.90;5.95;;;1.70;99.90;;;;;;5031435;28;20102;-85
2024/01/20 01:05:01;;;;;;;7.13;4.55;;;1.70;99.90;;;;;;5005802;28;20548;-85
2024/01/20 01:07:27;;;;;;;11.77;7.07;;;1.70;99.90;;;;;;4995568;28;20038;-84
2024/01/20 01:09:52;;;;;;;10.02;5.72;;;1.70;99.90;;;;;;5032765;28;20037;-85
2024/01/20 01:12:18;;;;;;;10.25;6.95;;;1.60;99.90;;;;;;5038055;28;20393;-83
2024/01/20 01:14:43;;;;;;;13.80;7.22;;;1.70;99.90;;;;;;5032610;28;20044;-84
2024/01/20 01:17:09;;;;;;;12.05;7.78;;;1.50;99.90;;;;;;5017845;28;20044;-85
2024/01/20 01:19:35;;;;;;;9.95;6.88;;;1.50;99.90;;;;;;5047477;28;20051;-84
2024/01/20 01:22:01;;;;;;;7.18;4.93;;;1.50;99.90;;;;;;5055096;28;20037;-84
2024/01/20 01:24:26;;;;;;;9.77;4.95;;;1.60;99.90;;;;;;5016531;28;20042;-85
2024/01/20 01:26:52;;;;;;;13.07;6.10;;;1.50;99.90;;;;;;5000066;28;20706;-84
2024/01/20 01:29:18;;;;;;;12.07;6.30;;;1.50;99.90;;;;;;5025079;28;20040;-85
2024/01/20 01:31:44;;;;;;;10.40;5.05;;;1.60;99.90;;;;;;5037960;28;20068;-85
2024/01/20 01:34:10;;;;;;;11.35;7.03;;;1.60;99.90;;;;;;5038447;28;20397;-83
2024/01/20 01:36:36;;;;;;;7.55;4.68;;;1.60;99.90;;;;;;5033302;28;20145;-85
2024/01/20 01:39:01;;;;;;;9.55;5.93;;;1.60;99.90;;;;;;5034695;28;20047;-84
2024/01/20 01:41:27;;;;;;;12.95;6.90;;;1.70;99.90;;;;;;5037988;28;20456;-84
2024/01/20 01:43:52;;;;;;;11.90;5.30;;;1.60;99.90;;;;;;5011445;28;20397;-84
2024/01/20 01:46:19;;;;;;;7.40;4.05;;;1.60;99.90;;;;;;4997842;28;20042;-85
2024/01/20 01:48:45;;;;;;;10.13;5.80;;;1.60;99.90;;;;;;4998232;28;20046;-84
2024/01/20 01:51:12;;;;;;;11.32;6.93;;;1.60;99.90;;;;;;5013108;28;20036;-84
2024/01/20 01:53:39;;;;;;;13.57;9.18;;;1.60;99.90;;;;;;5032702;28;20402;-83
2024/01/20 01:56:06;;;;;;;9.02;5.28;;;1.50;99.90;;;;;;5029995;28;20041;-85
2024/01/20 01:58:32;;;;;;;14.25;4.60;;;1.50;99.90;;;;;;5002868;28;20054;-85
2024/01/20 02:00:59;;;;;;;15.02;8.05;;;1.60;99.90;;;;;;5044256;28;20045;-85
2024/01/20 02:03:25;;;;;;;11.90;6.28;;;1.50;99.90;;;;;;5053367;28;20051;-84
2024/01/20 02:05:51;;;;;;;16.38;9.88;;;1.40;99.90;;;;;;5037471;28;20040;-84
2024/01/20 02:08:17;;;;;;;9.60;4.70;;;1.40;99.90;;;;;;5034821;28;20033;-84
2024/01/20 02:10:45;;;;;;;13.73;4.85;;;1.40;99.90;;;;;;5037461;28;20448;-85
2024/01/20 02:13:12;;;;;;;21.45;9.65;;;1.40;99.90;;;;;;5034614;28;20068;-84
2024/01/20 02:15:39;;;;;;;8.75;4.95;;;1.40;99.90;;;;;;5037304;28;20124;-86
2024/01/20 02:18:04;;;;;;;10.07;5.40;;;1.40;99.90;;;;;;5036353;28;20044;-85
2024/01/20 02:20:30;;;;;;;14.18;8.85;;;1.40;99.90;;;;;;5036902;28;20073;-86
2024/01/20 02:22:56;;;;;;;14.20;8.63;;;1.40;99.90;;;;;;5052228;28;20116;-85
2024/01/20 02:25:21;;;;;;;9.00;6.05;;;1.40;99.90;;;;;;5053655;28;20041;-86
2024/01/20 02:27:47;;;;;;;9.13;5.63;;;1.40;99.90;;;;;;5052555;28;20481;-86
2024/01/20 02:30:13;;;;;;;14.15;7.57;;;1.30;99.90;;;;;;5036911;28;20396;-84
2024/01/20 02:32:39;;;;;;;9.23;5.50;;;1.30;99.90;;;;;;5035288;28;20033;-84
2024/01/20 02:35:05;;;;;;;11.45;6.82;;;1.30;99.90;;;;;;5053452;28;20124;-85
2024/01/20 02:37:31;;;;;;;8.10;3.90;;;1.20;99.90;;;;;;5052381;28;20633;-86
2024/01/20 02:39:57;;;;;;;7.90;5.00;;;1.20;99.90;;;;;;5053362;28;20577;-85
2024/01/20 02:42:23;;;;;;;10.63;6.05;;;1.30;99.90;;;;;;5035836;28;20033;-85
2024/01/20 02:44:50;;;;;;;14.32;7.88;;;1.20;99.90;;;;;;5016693;28;20456;-85
2024/01/20 02:47:16;;;;;;;11.60;5.68;;;1.20;99.90;;;;;;5016830;28;20045;-85
2024/01/20 02:49:41;;;;;;;12.38;7.38;;;1.10;99.90;;;;;;5035637;28;20040;-86
2024/01/20 02:52:07;;;;;;;14.43;6.28;;;1.20;99.90;;;;;;5052521;28;20481;-85
2024/01/20 02:54:32;;;;;;;10.70;6.97;;;1.20;99.90;;;;;;5052045;28;20040;-85
2024/01/20 02:56:58;;;;;;;12.57;7.38;;;1.20;99.90;;;;;;5052998;28;20051;-85
2024/01/20 02:59:24;;;;;;;17.50;8.85;;;1.20;99.90;;;;;;5023262;28;20060;-85
2024/01/20 03:01:49;;;;;;;18.95;10.73;;;1.10;99.90;;;;;;5016605;28;20072;-85
2024/01/20 03:04:15;;;;;;;11.65;7.55;;;1.10;99.90;;;;;;5015697;28;20493;-86
2024/01/20 03:06:41;;;;;;;17.50;11.52;;;1.10;99.90;;;;;;5016417;28;20046;-85
2024/01/20 03:09:07;;;;;;;14.25;8.75;;;1.10;99.90;;;;;;5031882;28;20046;-84
2024/01/20 03:11:35;;;;;;;14.30;10.18;;;1.10;99.90;;;;;;5016457;28;20033;-86
2024/01/20 03:14:01;;;;;;;20.65;12.05;;;1.20;99.90;;;;;;5012535;28;20041;-85
2024/01/20 03:16:27;;;;;;;8.65;5.68;;;1.20;99.90;;;;;;5016319;28;20053;-84
2024/01/20 03:18:52;;;;;;;20.10;10.85;;;1.20;99.90;;;;;;5015213;28;20037;-85
2024/01/20 03:21:18;;;;;;;23.75;13.57;;;1.20;99.90;;;;;;5032743;28;20096;-85
2024/01/20 03:23:44;;;;;;;14.93;9.13;;;1.10;99.90;;;;;;5031930;28;20476;-86
2024/01/20 03:26:10;;;;;;;14.95;9.45;;;1.10;99.90;;;;;;5015998;28;20153;-85
2024/01/20 03:28:40;;;;;;;11.88;8.05;;;1.10;99.90;;;;;;5014115;28;20041;-84
2024/01/20 03:31:06;;;;;;;15.30;9.85;;;1.10;99.90;;;;;;5008845;28;20034;-87
2024/01/20 03:33:32;;;;;;;14.25;8.70;;;1.10;99.90;;;;;;5020970;28;20111;-85
2024/01/20 03:35:57;;;;;;;20.63;12.77;;;1.10;99.90;;;;;;5032105;28;20116;-85
2024/01/20 03:38:23;;;;;;;17.25;10.68;;;1.00;99.90;;;;;;5016182;28;20037;-86
2024/01/20 03:40:49;;;;;;;15.57;10.52;;;1.10;99.90;;;;;;5015106;28;20103;-86
2024/01/20 03:43:14;;;;;;;15.02;7.60;;;1.20;99.90;;;;;;5031627;28;20041;-86
2024/01/20 03:45:42;;;;;;;17.88;11.98;;;1.20;99.90;;;;;;5002236;28;20042;-85
2024/01/20 03:48:08;;;;;;;18.95;12.25;;;1.20;99.90;;;;;;5013219;28;20048;-86
2024/01/20 03:50:34;;;;;;;10.43;6.38;;;1.10;99.90;;;;;;5015122;28;20037;-86
2024/01/20 03:52:59;;;;;;;18.63;12.95;;;1.10;99.90;;;;;;5031922;28;20402;-85
2024/01/20 03:55:25;;;;;;;20.23;10.60;;;1.10;99.90;;;;;;5032331;28;20045;-85
2024/01/20 03:57:50;;;;;;;20.48;9.82;;;1.10;99.90;;;;;;5031617;28;20041;-87
2024/01/20 04:00:16;;;;;;;40.50;8.90;;;1.20;99.90;;;;;;5030175;28;20060;-86
2024/01/20 04:02:42;;;;;;;13.88;8.38;;;1.20;99.90;;;;;;5012582;28;20053;-86
2024/01/20 04:05:08;;;;;;;18.27;8.75;;;1.10;99.90;;;;;;5013936;28;20513;-86
2024/01/20 04:07:33;;;;;;;17.35;10.25;;;1.10;99.90;;;;;;5015256;28;20398;-87
2024/01/20 04:09:59;;;;;;;10.48;6.70;;;1.10;99.90;;;;;;5015835;28;20055;-87
2024/01/20 04:12:25;;;;;;;14.88;8.20;;;1.00;99.90;;;;;;5031212;28;20040;-87
2024/01/20 04:14:51;;;;;;;20.08;10.55;;;1.00;99.90;;;;;;5018792;28;20113;-88
2024/01/20 04:17:17;;;;;;;12.23;7.38;;;1.00;99.90;;;;;;5031862;28;20045;-86
2024/01/20 04:19:42;;;;;;;26.00;12.85;;;1.00;99.90;;;;;;5003400;28;20115;-85
2024/01/20 04:22:08;;;;;;;15.18;8.30;;;1.00;99.90;;;;;;4992069;28;20053;-87
2024/01/20 04:24:33;;;;;;;18.48;9.93;;;1.00;99.90;;;;;;5004904;28;20037;-88
2024/01/20 04:26:59;;;;;;;22.58;10.77;;;0.90;99.90;;;;;;5032868;28;20041;-86
2024/01/20 04:29:25;;;;;;;16.73;10.27;;;1.00;99.90;;;;;;5018669;28;20064;-87
2024/01/20 04:31:50;;;;;;;14.55;8.15;;;0.90;99.90;;;;;;5011076;28;20037;-87
2024/01/20 04:34:16;;;;;;;16.23;9.05;;;0.90;99.90;;;;;;5010859;28;20513;-86
2024/01/20 04:36:41;;;;;;;18.40;11.77;;;1.00;99.90;;;;;;4997389;28;20045;-85
2024/01/20 04:39:07;;;;;;;14.13;7.28;;;0.90;99.90;;;;;;5017835;28;20097;-87
2024/01/20 04:41:33;;;;;;;11.77;7.15;;;0.90;99.90;;;;;;4993383;28;20038;-87
2024/01/20 04:43:58;;;;;;;15.13;9.60;;;0.90;99.90;;;;;;4991258;28;20041;-88
2024/01/20 04:46:24;;;;;;;15.35;7.60;;;0.90;99.90;;;;;;5018153;28;20083;-87
2024/01/20 04:48:50;;;;;;;20.20;9.68;;;0.90;99.90;;;;;;4991317;28;20049;-86
2024/01/20 04:51:15;;;;;;;14.13;8.63;;;0.90;99.90;;;;;;4998337;28;20046;-88
2024/01/20 04:53:41;;;;;;;11.32;7.25;;;0.90;99.90;;;;;;5035301;28;20039;-88
2024/01/20 04:56:07;;;;;;;17.38;9.63;;;1.00;99.90;;;;;;5019325;28;20037;-88
2024/01/20 04:58:32;;;;;;;18.02;11.68;;;0.90;99.90;;;;;;5000064;28;20132;-87
2024/01/20 05:00:58;;;;;;;13.73;7.72;;;0.90;99.90;;;;;;5032481;28;20134;-88
2024/01/20 05:03:24;;;;;;;13.82;5.97;;;0.90;99.90;;;;;;5015451;28;20041;-88
2024/01/20 05:05:49;;;;;;;10.95;6.53;;;0.80;99.90;;;;;;5016002;28;20492;-88
2024/01/20 05:08:15;;;;;;;19.23;8.32;;;0.80;99.90;;;;;;5019608;28;20482;-88
2024/01/20 05:10:41;;;;;;;21.70;12.10;;;0.80;99.90;;;;;;5012798;28;20040;-88
2024/01/20 05:13:06;;;;;;;11.15;7.10;;;0.70;99.90;;;;;;5016222;28;20045;-89
2024/01/20 05:15:32;;;;;;;15.45;8.45;;;0.80;99.90;;;;;;5019398;28;20077;-88
2024/01/20 05:17:58;;;;;;;19.30;10.98;;;0.70;99.90;;;;;;5035565;28;20221;-88
2024/01/20 05:20:24;;;;;;;22.70;10.00;;;0.70;99.90;;;;;;5034253;28;20037;-88
2024/01/20 05:22:50;;;;;;;15.90;9.60;;;0.70;99.90;;;;;;5019076;28;20490;-88
2024/01/20 05:25:15;;;;;;;18.48;10.43;;;0.70;99.90;;;;;;5035699;28;20132;-88
2024/01/20 05:27:41;;;;;;;17.08;10.55;;;0.70;99.90;;;;;;5035242;28;20038;-87
2024/01/20 05:30:08;;;;;;;14.75;9.13;;;0.70;99.90;;;;;;5039704;28;20096;-87
2024/01/20 05:32:33;;;;;;;14.57;8.05;;;0.70;99.90;;;;;;5018756;28;20120;-88
2024/01/20 05:34:59;;;;;;;17.15;8.98;;;0.70;99.90;;;;;;5035292;28;20120;-87
2024/01/20 05:37:25;;;;;;;12.27;5.95;;;0.70;99.90;;;;;;5018531;28;20502;-89
2024/01/20 05:39:51;;;;;;;17.08;11.07;;;0.70;99.90;;;;;;5018474;28;20395;-87
2024/01/20 05:42:17;;;;;;;18.67;9.73;;;0.70;99.90;;;;;;5034365;28;20049;-88
2024/01/20 05:44:43;;;;;;;21.63;11.35;;;0.60;99.90;;;;;;5035229;28;20041;-88
2024/01/20 05:47:09;;;;;;;22.15;10.65;;;0.60;99.90;;;;;;5027342;28;20103;-88
2024/01/20 05:49:35;;;;;;;21.88;10.75;;;0.60;99.90;;;;;;5003936;28;20033;-88
2024/01/20 05:52:01;;;;;;;22.50;12.55;;;0.50;99.90;;;;;;5033644;28;20506;-87
2024/01/20 05:54:26;;;;;;;17.48;9.75;;;0.60;99.90;;;;;;5017565;28;20045;-88
2024/01/20 05:56:52;;;;;;;15.13;9.15;;;0.50;99.90;;;;;;5050673;28;20042;-89
2024/01/20 05:59:18;;;;;;;21.05;10.07;;;0.60;99.90;;;;;;5018185;28;20486;-88
2024/01/20 06:01:50;;;;;;;27.25;13.57;;;0.60;99.90;;;;;;5017014;28;20041;-87
2024/01/20 06:04:17;;;;;;;25.98;12.70;;;0.60;99.90;;;;;;5045668;28;20080;-87
2024/01/20 06:06:46;;;;;;;20.92;12.43;;;0.50;99.90;;;;;;5034358;28;20500;-87
2024/01/20 06:09:11;;;;;;;28.30;17.00;;;0.60;99.90;;;;;;5034519;28;20121;-87
2024/01/20 06:11:37;;;;;;;20.52;10.18;;;0.60;99.90;;;;;;5007238;28;20834;-86
2024/01/20 06:14:03;;;;;;;27.20;13.63;;;0.60;99.90;;;;;;4999925;28;20501;-87
2024/01/20 06:16:28;;;;;;;19.23;10.07;;;0.60;99.90;;;;;;5014385;28;20196;-87
2024/01/20 06:18:54;;;;;;;26.95;14.68;;;0.50;99.90;;;;;;5000041;28;20128;-87
2024/01/20 06:21:21;;;;;;;20.98;11.30;;;0.60;99.90;;;;;;5016408;28;20103;-87
2024/01/20 06:23:48;;;;;;;23.13;10.25;;;0.60;99.90;;;;;;5034073;28;20056;-87
2024/01/20 06:26:14;;;;;;;26.58;14.35;;;0.60;99.90;;;;;;5014282;28;20533;-86
2024/01/20 06:28:39;;;;;;;19.73;10.48;;;0.50;99.90;;;;;;4998450;28;20128;-88
2024/01/20 06:31:05;;;;;;;19.30;10.20;;;0.40;99.90;;;;;;5017087;28;20065;-88
2024/01/20 06:33:31;;;;;;;24.40;11.45;;;0.50;99.90;;;;;;4995950;28;20584;-88
2024/01/20 06:35:56;;;;;;;25.38;12.90;;;0.40;99.90;;;;;;4996773;28;20624;-86
2024/01/20 06:38:22;;;;;;;25.63;13.38;;;0.40;99.90;;;;;;5010388;28;20046;-87
2024/01/20 06:40:48;;;;;;;33.85;20.35;;;0.40;99.90;;;;;;5017853;28;20494;-86
2024/01/20 06:43:13;;;;;;;28.15;15.13;;;0.60;99.90;;;;;;5012088;28;20533;-86
2024/01/20 06:45:39;;;;;;;25.45;13.88;;;0.50;99.90;;;;;;4995530;28;20045;-87
2024/01/20 06:48:05;;;;;;;27.48;13.68;;;0.50;99.90;;;;;;4993555;28;20239;-86
2024/01/20 06:50:31;;;;;;;29.75;14.80;;;0.40;99.90;;;;;;4993338;28;20052;-87
2024/01/20 06:52:57;;;;;;;23.48;13.02;;;0.40;99.90;;;;;;4996887;28;20482;-85
2024/01/20 06:55:23;;;;;;;30.67;16.75;;;0.40;99.90;;;;;;4995575;28;20111;-88
2024/01/20 06:57:48;;;;;;;17.00;10.00;;;0.40;99.90;;;;;;4994796;28;20043;-88
2024/01/20 07:00:14;;;;;;;25.40;15.02;;;0.40;99.90;;;;;;5011580;28;20049;-86
2024/01/20 07:02:40;;;;;;;20.90;11.65;;;0.40;99.90;;;;;;5015450;28;20037;-86
2024/01/20 07:05:06;;;;;;;21.02;11.00;;;0.50;99.90;;;;;;5013607;28;20497;-85
2024/01/20 07:07:35;;;;;;;19.02;11.70;;;0.40;99.90;;;;;;4993054;28;20084;-85
2024/01/20 07:10:01;;;;;;;22.75;12.52;;;0.40;99.90;;;;;;4993722;28;20080;-84
2024/01/20 07:12:27;;;;;;;30.92;15.18;;;0.40;99.90;;;;;;5019976;28;20577;-85
2024/01/20 07:14:52;;;;;;;24.63;15.18;;;0.50;99.90;;;;;;5013286;28;20082;-86
2024/01/20 07:17:18;;;;;;;29.85;16.48;;;0.40;99.90;;;;;;5013672;28;20050;-86
2024/01/20 07:19:44;;;;;;;26.52;13.63;;;0.40;99.90;;;;;;4993122;28;20103;-85
2024/01/20 07:22:09;;;;;;;25.02;14.20;;;0.40;99.90;;;;;;4983385;28;20166;-87
2024/01/20 07:24:35;;;;;;;23.30;11.63;;;0.50;99.90;;;;;;5003887;28;20045;-87
2024/01/20 07:27:01;;;;;;;23.35;11.57;;;0.50;99.90;;;;;;4993419;28;20041;-86
2024/01/20 07:29:27;;;;;;;29.25;17.25;;;0.50;99.90;;;;;;5010224;28;20386;-87
2024/01/20 07:31:52;;;;;;;26.02;12.73;;;0.50;99.90;;;;;;4991127;28;20037;-85
2024/01/20 07:34:18;;;;;;;28.08;16.67;;;0.60;99.90;;;;;;5002202;28;20500;-86
2024/01/20 07:36:44;;;;;;;23.23;12.60;;;0.70;99.90;;;;;;4987481;28;20033;-87
2024/01/20 07:39:09;;;;;;;25.33;14.63;;;0.70;99.90;;;;;;5006332;28;20042;-86
2024/01/20 07:41:35;;;;;;;23.33;13.93;;;0.70;99.90;;;;;;5023391;28;20554;-86
2024/01/20 07:44:01;;;;;;;27.65;13.60;;;0.70;99.90;;;;;;5014172;28;20721;-86
2024/01/20 07:46:26;;;;;;;24.75;14.70;;;0.80;99.90;;;;;;5005343;28;20161;-85
2024/01/20 07:48:52;;;;;;;27.73;16.05;;;0.80;99.90;;;;;;5028840;28;20386;-85
2024/01/20 07:51:18;;;;;;;27.23;16.95;;;0.80;99.90;;;;;;5013612;28;20072;-86
2024/01/20 07:53:43;;;;;;;25.02;12.80;;;0.80;99.90;;;;;;5014247;28;20041;-85
2024/01/20 07:56:11;;;;;;;25.27;12.40;;;0.80;99.90;;;;;;5008499;28;20033;-87
2024/01/20 07:58:36;;;;;;;21.80;12.25;;;0.90;99.90;;;;;;5010872;28;20421;-86
2024/01/20 08:01:02;;;;;;;14.48;7.40;;;0.90;99.90;;;;;;5028709;28;20047;-87
2024/01/20 08:03:27;;;;;;;26.42;13.40;;;0.80;99.90;;;;;;5035259;28;20131;-86
2024/01/20 08:05:53;;;;;;;28.10;15.02;;;0.80;99.90;;;;;;5049702;28;20194;-87
2024/01/20 08:08:19;;;;;;;23.67;12.48;;;0.90;99.90;;;;;;5034789;28;20029;-87
2024/01/20 08:10:44;;;;;;;23.48;12.05;;;1.00;99.90;;;;;;5060190;28;20032;-86
2024/01/20 08:13:10;;;;;;;23.70;13.13;;;1.10;99.90;;;;;;5034138;28;20112;-87
2024/01/20 08:15:36;;;;;;;20.00;12.13;;;1.00;99.90;;;;;;5045888;28;20453;-87
2024/01/20 08:18:01;;;;;;;16.85;9.10;;;1.00;99.90;;;;;;5019712;28;20040;-87
2024/01/20 08:20:27;;;;;;;21.25;12.77;;;1.00;99.90;;;;;;5031458;28;20041;-86
2024/01/20 08:22:53;;;;;;;26.05;13.43;;;1.00;99.90;;;;;;5032447;28;20037;-87
2024/01/20 08:25:18;;;;;;;23.80;12.68;;;1.10;99.90;;;;;;5048293;28;20086;-88
2024/01/20 08:27:44;;;;;;;23.38;12.75;;;1.00;99.90;;;;;;5032367;28;20417;-87
2024/01/20 08:30:10;;;;;;;17.63;10.43;;;1.00;99.90;;;;;;5020300;28;20041;-87
2024/01/20 08:32:37;;;;;;;28.55;14.13;;;1.00;99.90;;;;;;5033773;28;20044;-88
2024/01/20 08:35:03;;;;;;;25.73;12.80;;;1.00;99.90;;;;;;5034108;28;20048;-87
2024/01/20 08:37:29;;;;;;;22.13;12.88;;;1.10;99.90;;;;;;5041384;28;20041;-89
2024/01/20 08:39:54;;;;;;;21.50;10.93;;;1.10;99.90;;;;;;5051057;28;20053;-88
2024/01/20 08:42:20;;;;;;;21.75;12.75;;;1.20;99.90;;;;;;5048645;28;20135;-87
2024/01/20 08:44:46;;;;;;;23.85;13.15;;;1.20;99.90;;;;;;5049179;28;20080;-87
2024/01/20 08:47:11;;;;;;;17.85;10.05;;;1.20;99.90;;;;;;5034227;28;20474;-87
2024/01/20 08:49:37;;;;;;;21.63;12.60;;;1.20;99.90;;;;;;5034240;28;20037;-87
2024/01/20 08:52:03;;;;;;;22.63;11.43;;;1.30;99.90;;;;;;5043931;28;20045;-76
2024/01/20 08:54:28;;;;;;;19.33;11.32;;;1.30;99.90;;;;;;5050070;28;20120;-79
2024/01/20 08:56:54;;;;;;;25.73;13.05;;;1.30;99.90;;;;;;5028396;28;20037;-87
2024/01/20 08:59:20;;;;;;;26.02;13.45;;;1.40;99.90;;;;;;5062321;28;20056;-85
2024/01/20 09:01:45;;;;;;;24.75;13.45;;;1.40;99.90;;;;;;5062838;28;20033;-84
2024/01/20 09:04:11;;;;;;;20.65;12.77;;;1.40;99.90;;;;;;5037629;28;20041;-85
2024/01/20 09:06:37;;;;;;;28.13;13.13;;;1.50;99.90;;;;;;5039554;28;20037;-86
2024/01/20 09:09:02;;;;;;;17.10;10.15;;;1.60;99.90;;;;;;5062137;28;20408;-87
2024/01/20 09:11:28;;;;;;;18.45;10.30;;;1.50;99.90;;;;;;5050749;28;20572;-86
2024/01/20 09:13:54;;;;;;;21.92;11.45;;;1.60;99.90;;;;;;5050838;28;20527;-85
2024/01/20 09:16:19;;;;;;;21.65;12.45;;;1.60;99.90;;;;;;5036185;28;20037;-85
2024/01/20 09:18:45;;;;;;;23.92;11.60;;;1.50;99.90;;;;;;5065990;28;20692;-86
2024/01/20 09:21:11;;;;;;;14.20;6.53;;;1.60;99.90;;;;;;5039206;28;20495;-86
2024/01/20 09:23:37;;;;;;;21.63;10.02;;;1.60;99.90;;;;;;5065571;28;20527;-84
2024/01/20 09:26:03;;;;;;;25.08;12.45;;;1.60;99.90;;;;;;5042316;28;20076;-86
2024/01/20 09:28:28;;;;;;;23.83;10.80;;;1.60;99.90;;;;;;5070342;28;20036;-85
2024/01/20 09:30:54;;;;;;;19.75;10.43;;;1.60;99.90;;;;;;5054062;28;20439;-86
2024/01/20 09:33:20;;;;;;;22.15;11.05;;;1.70;99.90;;;;;;5057420;28;20043;-86
2024/01/20 09:35:45;;;;;;;15.23;8.23;;;1.70;99.90;;;;;;5067027;28;20036;-86
2024/01/20 09:38:11;;;;;;;16.73;7.90;;;1.60;99.90;;;;;;5039848;28;20040;-86
2024/01/20 09:40:37;;;;;;;21.95;12.20;;;1.80;99.90;;;;;;5058858;28;20131;-86
2024/01/20 09:43:04;;;;;;;18.10;7.15;;;1.80;99.90;;;;;;5057896;28;20040;-85
2024/01/20 09:45:30;;;;;;;16.08;9.80;;;1.90;99.90;;;;;;5063866;28;20397;-86
2024/01/20 09:47:57;;;;;;;22.35;12.25;;;1.90;99.90;;;;;;5053879;28;20033;-87
2024/01/20 09:50:22;;;;;;;17.73;8.57;;;1.90;99.90;;;;;;5065054;28;20127;-86
2024/01/20 09:52:58;;;;;;;20.60;11.50;;;1.90;99.90;;;;;;5071410;28;20119;-86
2024/01/20 09:55:25;;;;;;;23.05;10.63;;;1.90;99.90;;;;;;5056813;28;20037;-86
2024/01/20 09:57:51;;;;;;;22.00;11.90;;;1.90;99.90;;;;;;5036375;28;20048;-85
2024/01/20 10:00:19;;;;;;;16.90;8.43;;;1.90;99.90;;;;;;5030806;28;20132;-85
2024/01/20 10:02:46;;;;;;;23.17;13.13;;;1.90;99.90;;;;;;5012048;28;20042;-85
2024/01/20 10:05:12;;;;;;;18.92;8.70;;;2.00;99.90;;;;;;5033637;28;20037;-86
2024/01/20 10:07:38;;;;;;;23.90;12.30;;;2.00;99.90;;;;;;5043098;28;20489;-85
2024/01/20 10:10:06;;;;;;;23.00;8.77;;;1.90;99.90;;;;;;5043762;28;20042;-85
2024/01/20 10:12:32;;;;;;;22.38;10.38;;;2.00;99.90;;;;;;5017407;28;20121;-86
2024/01/20 10:14:57;;;;;;;16.83;7.70;;;1.90;99.90;;;;;;5025309;28;20120;-85
2024/01/20 10:17:23;;;;;;;22.52;12.00;;;1.90;99.90;;;;;;5020755;28;20131;-84
2024/01/20 10:19:48;;;;;;;15.60;7.20;;;2.00;99.90;;;;;;5016698;28;20405;-86
2024/01/20 10:22:14;;;;;;;18.55;9.75;;;2.00;99.90;;;;;;4997258;28;20037;-84
2024/01/20 10:24:51;;;;;;;21.02;10.90;;;2.10;99.90;;;;;;5021853;28;20120;-83
2024/01/20 10:27:25;;;;;;;22.73;10.05;;;2.10;99.90;;;;;;5004226;28;20033;-85
2024/01/20 10:29:50;;;;;;;18.55;10.38;;;2.10;99.90;;;;;;5012767;28;20053;-85
2024/01/20 10:32:16;;;;;;;16.75;8.60;;;2.10;99.90;;;;;;5016986;28;20468;-84
2024/01/20 10:34:43;;;;;;;13.40;6.40;;;2.20;99.90;;;;;;5030730;28;20045;-84
2024/01/20 10:37:10;;;;;;;15.07;8.90;;;2.30;99.90;;;;;;5031307;28;20045;-83
2024/01/20 10:39:45;;;;;;;21.60;11.93;;;2.30;99.90;;;;;;5005819;28;20569;-83
2024/01/20 10:42:13;;;;;;;17.55;10.35;;;2.30;99.90;;;;;;5014320;28;20037;-83
2024/01/20 10:44:42;;;;;;;17.58;8.70;;;2.30;99.90;;;;;;5017864;28;20045;-84
2024/01/20 10:47:18;;;;;;;16.30;9.50;;;2.40;99.90;;;;;;5032008;28;20042;-84
2024/01/20 10:49:45;;;;;;;20.98;10.40;;;2.30;99.90;;;;;;5031714;28;20104;-83
2024/01/20 10:52:13;;;;;;;16.45;6.72;;;2.40;99.90;;;;;;5015098;28;20042;-83
2024/01/20 10:54:41;;;;;;;18.77;9.20;;;2.30;99.90;;;;;;5030310;28;20047;-83
2024/01/20 10:57:07;;;;;;;22.23;10.48;;;2.30;99.90;;;;;;5024895;28;20045;-83
2024/01/20 10:59:36;;;;;;;18.45;7.95;;;2.30;99.90;;;;;;5030878;28;20045;-83
2024/01/20 11:02:04;;;;;;;23.95;10.65;;;2.30;99.90;;;;;;5014784;28;20095;-83
2024/01/20 11:04:34;;;;;;;21.67;9.93;;;2.30;99.90;;;;;;5032378;28;20037;-84
2024/01/20 11:07:00;;;;;;;21.17;10.00;;;2.50;99.90;;;;;;5029913;28;20045;-84
2024/01/20 11:09:26;;;;;;;22.55;11.25;;;2.40;99.90;;;;;;5029675;28;20478;-83
2024/01/20 11:12:06;;;;;;;16.13;8.35;;;2.50;99.90;;;;;;5032356;28;20041;-83
2024/01/20 11:14:33;;;;;;;19.60;9.20;;;2.40;99.90;;;;;;5014655;28;20042;-83
2024/01/20 11:17:12;;;;;;;20.23;8.00;;;2.40;99.90;;;;;;5031057;28;20050;-83
2024/01/20 11:19:38;;;;;;;15.02;7.25;;;2.50;99.90;;;;;;5028358;28;20179;-83
2024/01/20 11:22:04;;;;;;;18.48;8.70;;;2.40;99.90;;;;;;5014441;28;20060;-83
2024/01/20 11:24:38;;;;;;;21.15;11.82;;;2.30;99.90;;;;;;5031884;28;20521;-84
2024/01/20 11:27:04;;;;;;;26.63;10.88;;;2.40;99.90;;;;;;5014395;28;20136;-83
2024/01/20 11:29:29;;;;;;;26.55;12.73;;;2.40;99.90;;;;;;5011896;28;20065;-83
2024/01/20 11:31:56;;;;;;;21.00;10.13;;;2.40;99.90;;;;;;5014836;28;20470;-83
2024/01/20 11:34:21;;;;;;;20.40;10.82;;;2.40;99.90;;;;;;5014579;28;20124;-83
2024/01/20 11:36:48;;;;;;;18.73;9.57;;;2.40;99.90;;;;;;5003975;28;20132;-82
2024/01/20 11:39:14;;;;;;;22.13;13.07;;;2.40;99.90;;;;;;5008659;28;20096;-82
2024/01/20 11:41:40;;;;;;;23.13;13.10;;;2.40;99.90;;;;;;5028241;28;20037;-82
2024/01/20 11:44:06;;;;;;;16.38;8.50;;;2.40;99.90;;;;;;5008107;28;20498;-83
2024/01/20 11:46:32;;;;;;;23.73;11.63;;;2.40;99.90;;;;;;5021118;28;20044;-83
2024/01/20 11:48:57;;;;;;;27.25;13.50;;;2.30;99.90;;;;;;5022959;28;20550;-82
2024/01/20 11:51:23;;;;;;;17.65;8.48;;;2.40;99.90;;;;;;5032106;28;20516;-83
2024/01/20 11:53:49;;;;;;;15.63;7.65;;;2.40;99.90;;;;;;5008654;28;20073;-83
2024/01/20 11:56:16;;;;;;;20.35;10.07;;;2.50;99.90;;;;;;5010004;28;20049;-83
2024/01/20 11:58:42;;;;;;;15.65;7.15;;;2.50;99.90;;;;;;5031029;28;20060;-83
2024/01/20 12:01:07;;;;;;;20.10;11.32;;;2.70;99.90;;;;;;5021214;28;20041;-82
2024/01/20 12:03:33;;;;;;;19.17;10.07;;;2.50;99.90;;;;;;5007478;28;20513;-83
2024/01/20 12:06:06;;;;;;;17.02;8.90;;;2.60;99.90;;;;;;5002933;28;20045;-82
2024/01/20 12:08:32;;;;;;;17.20;9.05;;;2.50;99.90;;;;;;5026649;28;20402;-82
2024/01/20 12:10:58;;;;;;;20.50;10.02;;;2.50;99.90;;;;;;5028209;28;20087;-83
2024/01/20 12:13:25;;;;;;;21.70;11.07;;;2.50;99.90;;;;;;5029677;28;20575;-82
2024/01/20 12:15:51;;;;;;;21.30;9.50;;;2.60;99.90;;;;;;5011124;28;20373;-82
2024/01/20 12:18:17;;;;;;;22.30;12.90;;;2.50;99.90;;;;;;5013959;28;20196;-82
2024/01/20 12:20:44;;;;;;;22.17;11.30;;;2.60;99.90;;;;;;5013092;28;20052;-81
2024/01/20 12:23:09;;;;;;;17.63;7.88;;;2.60;99.90;;;;;;5029054;28;20124;-82
2024/01/20 12:25:35;;;;;;;18.83;11.00;;;2.60;99.90;;;;;;5030168;28;20123;-82
2024/01/20 12:28:04;;;;;;;26.70;12.52;;;2.60;99.90;;;;;;5014713;28;20044;-81
2024/01/20 12:30:30;;;;;;;18.95;9.95;;;2.60;99.90;;;;;;5014019;28;20115;-82
2024/01/20 12:32:58;;;;;;;15.82;8.02;;;2.60;99.90;;;;;;5029936;28;20453;-81
2024/01/20 12:35:25;;;;;;;20.95;11.80;;;2.60;99.90;;;;;;5001050;28;20559;-81
2024/01/20 12:37:50;;;;;;;23.10;14.95;;;2.60;99.90;;;;;;4997611;28;20083;-81